createdAt,value
2017-12-13T00:00:45.771Z,2.76
2017-12-13T00:03:20.568Z,2.75
2017-12-13T00:05:55.160Z,2.74
2017-12-13T00:08:29.965Z,2.73
2017-12-13T00:11:04.620Z,2.76
2017-12-13T00:13:39.356Z,2.78
2017-12-13T00:16:14.431Z,2.77
2017-12-13T00:18:49.096Z,2.77
2017-12-13T00:21:24.020Z,2.76
2017-12-13T00:23:58.905Z,2.75
2017-12-13T00:26:33.452Z,2.74
2017-12-13T00:29:08.439Z,2.74
2017-12-13T00:31:43.373Z,2.78
2017-12-13T00:34:18.400Z,2.75
2017-12-13T00:36:53.124Z,2.76
2017-12-13T00:39:28.021Z,2.78
2017-12-13T00:42:02.776Z,2.79
2017-12-13T00:44:37.652Z,2.81
2017-12-13T00:47:12.480Z,2.78
2017-12-13T00:49:47.443Z,2.82
2017-12-13T00:52:22.296Z,2.87
2017-12-13T00:54:57.244Z,2.89
2017-12-13T00:57:31.891Z,2.83
2017-12-13T01:00:06.851Z,2.82
2017-12-13T01:02:41.600Z,2.81
2017-12-13T01:05:16.410Z,2.88
2017-12-13T01:07:51.232Z,2.88
2017-12-13T01:10:25.956Z,2.89
2017-12-13T01:13:00.689Z,2.78
2017-12-13T01:15:35.372Z,2.85
2017-12-13T01:18:10.144Z,2.93
2017-12-13T01:20:44.976Z,2.87
2017-12-13T01:23:19.784Z,2.91
2017-12-13T01:25:54.512Z,2.94
2017-12-13T01:28:29.357Z,2.94
2017-12-13T01:31:04.188Z,2.98
2017-12-13T01:33:38.916Z,2.88
2017-12-13T01:36:13.379Z,2.91
2017-12-13T01:38:48.450Z,2.91
2017-12-13T01:41:23.596Z,2.87
2017-12-13T01:43:58.524Z,2.88
2017-12-13T01:46:33.257Z,2.86
2017-12-13T01:49:08.232Z,2.87
2017-12-13T01:51:42.884Z,2.85
2017-12-13T01:54:17.611Z,2.84
2017-12-13T01:56:52.774Z,2.75
2017-12-13T01:59:27.671Z,2.82
2017-12-13T02:02:02.436Z,2.84
2017-12-13T02:04:36.828Z,2.80
2017-12-13T02:07:11.928Z,2.76
2017-12-13T02:09:46.835Z,2.78
2017-12-13T02:12:21.221Z,2.78
2017-12-13T02:14:56.163Z,2.83
2017-12-13T02:17:30.564Z,2.80
2017-12-13T02:20:05.165Z,2.79
2017-12-13T02:22:39.846Z,2.77
2017-12-13T02:25:14.877Z,2.80
2017-12-13T02:27:49.708Z,2.86
2017-12-13T02:30:24.480Z,2.88
2017-12-13T02:32:59.303Z,2.87
2017-12-13T02:35:34.136Z,2.78
2017-12-13T02:38:08.963Z,2.78
2017-12-13T02:40:54.984Z,2.80
2017-12-13T02:43:29.400Z,2.72
2017-12-13T02:46:04.103Z,2.67
2017-12-13T02:48:38.829Z,2.67
2017-12-13T02:51:13.532Z,2.76
2017-12-13T02:53:48.431Z,2.77
2017-12-13T02:56:23.004Z,2.80
2017-12-13T02:58:57.820Z,2.81
2017-12-13T03:01:32.912Z,2.75
2017-12-13T03:04:07.744Z,2.74
2017-12-13T03:06:42.588Z,2.66
2017-12-13T03:09:17.121Z,2.68
2017-12-13T03:11:52.435Z,2.71
2017-12-13T03:14:26.788Z,2.77
2017-12-13T03:17:01.875Z,2.81
2017-12-13T03:19:36.903Z,2.75
2017-12-13T03:22:11.532Z,2.71
2017-12-13T03:24:46.487Z,2.68
2017-12-13T03:27:21.484Z,2.78
2017-12-13T03:29:56.408Z,2.83
2017-12-13T03:32:31.020Z,2.75
2017-12-13T03:35:05.808Z,2.70
2017-12-13T03:37:40.576Z,2.63
2017-12-13T03:40:15.277Z,2.60
2017-12-13T03:42:50.091Z,2.63
2017-12-13T03:45:24.855Z,2.68
2017-12-13T03:47:59.640Z,2.67
2017-12-13T03:50:34.395Z,2.68
2017-12-13T03:53:09.211Z,2.60
2017-12-13T03:55:44.072Z,2.58
2017-12-13T03:58:18.944Z,2.72
2017-12-13T04:00:53.496Z,2.69
2017-12-13T04:03:28.532Z,2.70
2017-12-13T04:06:03.126Z,2.64
2017-12-13T04:08:37.989Z,2.68
2017-12-13T04:11:12.712Z,2.68
2017-12-13T04:13:47.332Z,2.59
2017-12-13T04:16:22.091Z,2.62
2017-12-13T04:18:56.923Z,2.63
2017-12-13T04:21:31.392Z,2.67
2017-12-13T04:24:06.337Z,2.75
2017-12-13T04:26:41.277Z,2.71
2017-12-13T04:29:16.105Z,2.67
2017-12-13T04:31:50.852Z,2.64
2017-12-13T04:34:25.660Z,2.71
2017-12-13T04:37:00.392Z,2.73
2017-12-13T04:39:35.016Z,2.71
2017-12-13T04:42:09.840Z,2.67
2017-12-13T04:44:44.547Z,2.68
2017-12-13T04:47:19.308Z,2.73
2017-12-13T04:49:54.136Z,2.72
2017-12-13T04:52:28.880Z,2.63
2017-12-13T04:55:03.798Z,2.74
2017-12-13T04:57:38.542Z,2.75
2017-12-13T05:00:12.908Z,2.80
2017-12-13T05:02:47.945Z,2.81
2017-12-13T05:05:22.876Z,2.86
2017-12-13T05:07:57.671Z,2.85
2017-12-13T05:10:32.073Z,2.83
2017-12-13T05:13:06.856Z,2.84
2017-12-13T05:15:41.757Z,2.82
2017-12-13T05:18:16.354Z,2.84
2017-12-13T05:20:51.407Z,2.85
2017-12-13T05:23:26.236Z,2.84
2017-12-13T05:26:00.950Z,2.91
2017-12-13T05:28:35.804Z,2.87
2017-12-13T05:31:10.524Z,2.88
2017-12-13T05:33:45.490Z,2.90
2017-12-13T05:36:20.277Z,2.94
2017-12-13T05:38:55.108Z,2.95
2017-12-13T05:41:29.737Z,2.90
2017-12-13T05:44:04.160Z,2.93
2017-12-13T05:46:39.196Z,2.90
2017-12-13T05:49:13.968Z,2.88
2017-12-13T05:51:50.422Z,2.87
2017-12-13T05:54:25.732Z,2.89
2017-12-13T05:57:00.432Z,2.94
2017-12-13T05:59:35.260Z,3.00
2017-12-13T06:02:10.004Z,3.01
2017-12-13T06:04:44.765Z,2.90
2017-12-13T06:07:19.476Z,2.95
2017-12-13T06:09:54.444Z,2.89
2017-12-13T06:12:29.395Z,2.84
2017-12-13T06:15:04.109Z,2.80
2017-12-13T06:17:39.012Z,2.76
2017-12-13T06:20:13.660Z,2.80
2017-12-13T06:22:48.388Z,2.87
2017-12-13T06:25:23.240Z,2.84
2017-12-13T06:27:58.145Z,2.82
2017-12-13T06:30:33.076Z,2.83
2017-12-13T06:33:08.095Z,2.79
2017-12-13T06:35:42.414Z,2.85
2017-12-13T06:38:16.874Z,2.77
2017-12-13T06:40:51.712Z,2.69
2017-12-13T06:43:26.683Z,2.83
2017-12-13T06:46:01.692Z,2.89
2017-12-13T06:48:36.671Z,2.77
2017-12-13T06:51:11.504Z,2.70
2017-12-13T06:53:46.144Z,2.64
2017-12-13T06:56:20.984Z,2.67
2017-12-13T06:58:55.907Z,2.62
2017-12-13T07:01:30.551Z,2.57
2017-12-13T07:04:05.283Z,2.64
2017-12-13T07:06:40.037Z,2.80
2017-12-13T07:09:14.740Z,2.73
2017-12-13T07:11:49.820Z,2.70
2017-12-13T07:14:24.176Z,2.85
2017-12-13T07:16:59.055Z,2.93
2017-12-13T07:19:33.849Z,2.84
2017-12-13T07:22:08.492Z,2.82
2017-12-13T07:24:43.213Z,2.93
2017-12-13T07:27:17.573Z,3.02
2017-12-13T07:29:52.128Z,2.91
2017-12-13T07:32:27.161Z,2.89
2017-12-13T07:35:01.917Z,3.03
2017-12-13T07:37:36.736Z,3.09
2017-12-13T07:40:11.491Z,3.10
2017-12-13T07:42:45.840Z,3.00
2017-12-13T07:45:20.572Z,3.08
2017-12-13T07:47:55.455Z,3.12
2017-12-13T07:50:30.200Z,3.18
2017-12-13T07:53:04.556Z,3.16
2017-12-13T07:55:39.373Z,3.12
2017-12-13T07:58:14.345Z,3.17
2017-12-13T08:00:48.987Z,3.23
2017-12-13T08:03:23.852Z,3.22
2017-12-13T08:05:58.544Z,3.30
2017-12-13T08:08:33.295Z,3.25
2017-12-13T08:11:08.224Z,3.22
2017-12-13T08:13:42.903Z,3.23
2017-12-13T08:16:17.721Z,3.25
2017-12-13T08:18:52.586Z,3.24
2017-12-13T08:21:27.221Z,3.38
2017-12-13T08:24:01.944Z,3.29
2017-12-13T08:26:36.676Z,3.32
2017-12-13T08:29:11.401Z,3.31
2017-12-13T08:31:46.099Z,3.40
2017-12-13T08:34:20.912Z,3.45
2017-12-13T08:36:55.612Z,3.45
2017-12-13T08:39:30.540Z,3.52
2017-12-13T08:42:05.272Z,3.60
2017-12-13T08:44:40.220Z,3.60
2017-12-13T08:47:14.597Z,3.67
2017-12-13T08:49:49.757Z,3.72
2017-12-13T08:52:24.504Z,3.81
2017-12-13T08:54:58.982Z,3.92
2017-12-13T08:57:33.988Z,4.05
2017-12-13T09:00:08.793Z,4.09
2017-12-13T09:02:43.539Z,4.15
2017-12-13T09:05:18.372Z,4.09
2017-12-13T09:07:53.299Z,4.12
2017-12-13T09:10:28.077Z,4.06
2017-12-13T09:13:02.852Z,4.01
2017-12-13T09:15:37.627Z,4.07
2017-12-13T09:18:12.815Z,4.12
2017-12-13T09:20:47.384Z,4.22
2017-12-13T09:23:22.364Z,4.21
2017-12-13T09:25:56.596Z,4.14
2017-12-13T09:28:31.197Z,4.13
2017-12-13T09:31:06.281Z,4.16
2017-12-13T09:33:41.057Z,4.14
2017-12-13T09:36:15.889Z,4.16
2017-12-13T09:38:50.488Z,4.18
2017-12-13T09:41:25.467Z,4.20
2017-12-13T09:44:00.288Z,4.23
2017-12-13T09:46:35.072Z,4.19
2017-12-13T09:49:09.500Z,4.31
2017-12-13T09:51:44.553Z,4.27
2017-12-13T09:54:19.260Z,4.22
2017-12-13T09:56:53.985Z,4.23
2017-12-13T09:59:28.441Z,4.30
2017-12-13T10:02:03.657Z,4.30
2017-12-13T10:04:38.097Z,4.38
2017-12-13T10:07:12.911Z,4.38
2017-12-13T10:09:47.527Z,4.31
2017-12-13T10:12:22.476Z,4.24
2017-12-13T10:14:57.252Z,4.18
2017-12-13T10:17:32.155Z,4.05
2017-12-13T10:20:06.856Z,3.98
2017-12-13T10:22:41.836Z,3.90
2017-12-13T10:25:16.744Z,3.89
2017-12-13T10:27:51.539Z,3.97
2017-12-13T10:30:26.244Z,3.94
2017-12-13T10:33:01.073Z,3.94
2017-12-13T10:35:35.520Z,3.90
2017-12-13T10:38:10.420Z,3.93
2017-12-13T10:40:45.117Z,4.00
2017-12-13T10:43:19.876Z,4.02
2017-12-13T10:45:54.671Z,4.03
2017-12-13T10:48:29.416Z,4.09
2017-12-13T10:51:04.127Z,4.11
2017-12-13T10:53:38.912Z,4.17
2017-12-13T10:56:13.796Z,4.19
2017-12-13T10:58:48.092Z,4.22
2017-12-13T11:01:22.719Z,4.27
2017-12-13T11:03:57.701Z,4.30
2017-12-13T11:06:32.176Z,4.31
2017-12-13T11:09:06.750Z,4.36
2017-12-13T11:11:41.679Z,4.34
2017-12-13T11:14:16.286Z,4.33
2017-12-13T11:16:51.260Z,4.28
2017-12-13T11:19:26.187Z,4.29
2017-12-13T11:22:00.544Z,4.28
2017-12-13T11:24:35.629Z,4.28
2017-12-13T11:27:10.116Z,4.21
2017-12-13T11:29:44.797Z,4.25
2017-12-13T11:32:19.727Z,4.26
2017-12-13T11:34:54.008Z,4.24
2017-12-13T11:37:29.164Z,4.23
2017-12-13T11:40:04.018Z,4.28
2017-12-13T11:42:38.916Z,4.28
2017-12-13T11:45:13.544Z,4.20
2017-12-13T11:47:48.889Z,4.16
2017-12-13T11:50:23.324Z,4.19
2017-12-13T11:52:58.160Z,4.29
2017-12-13T11:55:32.867Z,4.21
2017-12-13T11:58:07.596Z,4.15
2017-12-13T12:00:42.212Z,4.08
2017-12-13T12:03:16.640Z,4.01
2017-12-13T12:05:51.647Z,3.98
2017-12-13T12:08:26.203Z,4.09
2017-12-13T12:11:01.261Z,4.05
2017-12-13T12:13:36.104Z,3.97
2017-12-13T12:16:11.008Z,3.86
2017-12-13T12:18:45.740Z,3.93
2017-12-13T12:21:20.456Z,3.92
2017-12-13T12:23:55.493Z,3.98
2017-12-13T12:26:30.000Z,3.98
2017-12-13T12:29:04.587Z,3.99
2017-12-13T12:31:39.309Z,3.99
2017-12-13T12:34:14.310Z,3.96
2017-12-13T12:36:48.755Z,4.01
2017-12-13T12:39:23.925Z,3.97
2017-12-13T12:41:58.982Z,3.90
2017-12-13T12:44:33.668Z,3.86
2017-12-13T12:47:08.376Z,3.87
2017-12-13T12:49:43.356Z,3.90
2017-12-13T12:52:18.032Z,3.87
2017-12-13T12:54:52.827Z,3.79
2017-12-13T12:57:27.533Z,3.76
2017-12-13T13:00:02.212Z,3.69
2017-12-13T13:02:36.949Z,3.61
2017-12-13T13:05:11.771Z,3.55
2017-12-13T13:07:46.728Z,3.52
2017-12-13T13:10:21.634Z,3.46
2017-12-13T13:12:56.588Z,3.45
2017-12-13T13:15:31.075Z,3.43
2017-12-13T13:18:05.931Z,3.38
2017-12-13T13:20:40.540Z,3.37
2017-12-13T13:23:15.165Z,3.35
2017-12-13T13:25:50.200Z,3.36
2017-12-13T13:28:25.047Z,3.38
2017-12-13T13:30:59.349Z,3.43
2017-12-13T13:33:34.312Z,3.45
2017-12-13T13:36:09.022Z,3.42
2017-12-13T13:38:43.768Z,3.42
2017-12-13T13:41:18.568Z,3.53
2017-12-13T13:43:53.449Z,3.57
2017-12-13T13:46:28.351Z,3.49
2017-12-13T13:49:03.099Z,3.45
2017-12-13T13:51:37.915Z,3.42
2017-12-13T13:54:12.679Z,3.44
2017-12-13T13:56:47.595Z,3.48
2017-12-13T13:59:22.612Z,3.51
2017-12-13T14:01:57.449Z,3.54
2017-12-13T14:04:32.403Z,3.65
2017-12-13T14:07:07.103Z,3.81
2017-12-13T14:09:41.773Z,3.86
2017-12-13T14:12:16.560Z,3.96
2017-12-13T14:14:51.394Z,4.07
2017-12-13T14:17:26.222Z,4.17
2017-12-13T14:20:00.964Z,4.27
2017-12-13T14:22:35.484Z,4.28
2017-12-13T14:25:10.545Z,4.36
2017-12-13T14:27:45.216Z,4.33
2017-12-13T14:30:20.024Z,4.40
2017-12-13T14:32:54.700Z,4.41
2017-12-13T14:35:29.328Z,4.34
2017-12-13T14:38:04.056Z,4.31
2017-12-13T14:40:38.760Z,4.25
2017-12-13T14:43:13.636Z,4.22
2017-12-13T14:45:48.396Z,4.17
2017-12-13T14:48:23.421Z,4.22
2017-12-13T14:50:58.325Z,4.20
2017-12-13T14:53:33.123Z,4.12
2017-12-13T14:56:07.891Z,4.08
2017-12-13T14:58:42.660Z,4.06
2017-12-13T15:01:17.392Z,4.01
2017-12-13T15:03:51.965Z,3.92
2017-12-13T15:06:26.718Z,3.86
2017-12-13T15:09:01.524Z,3.88
2017-12-13T15:11:36.356Z,3.83
2017-12-13T15:14:11.329Z,3.81
2017-12-13T15:16:46.228Z,3.74
2017-12-13T15:19:21.057Z,3.74
2017-12-13T15:21:55.872Z,3.71
2017-12-13T15:24:30.442Z,3.72
2017-12-13T15:27:05.200Z,3.75
2017-12-13T15:29:39.924Z,3.71
2017-12-13T15:32:14.707Z,3.69
2017-12-13T15:34:49.428Z,3.68
2017-12-13T15:37:24.156Z,3.69
2017-12-13T15:39:59.032Z,3.71
2017-12-13T15:42:34.069Z,3.77
2017-12-13T15:45:08.944Z,3.87
2017-12-13T15:47:43.607Z,3.92
2017-12-13T15:50:18.297Z,3.98
2017-12-13T15:52:52.664Z,4.00
2017-12-13T15:55:27.853Z,4.06
2017-12-13T15:58:02.296Z,4.09
2017-12-13T16:00:37.308Z,4.15
2017-12-13T16:03:11.815Z,4.25
2017-12-13T16:05:46.796Z,4.33
2017-12-13T16:08:21.521Z,4.36
2017-12-13T16:10:56.208Z,4.36
2017-12-13T16:13:31.060Z,4.37
2017-12-13T16:16:05.745Z,4.40
2017-12-13T16:18:40.736Z,4.42
2017-12-13T16:21:15.701Z,4.48
2017-12-13T16:23:50.499Z,4.48
2017-12-13T16:26:25.362Z,4.49
2017-12-13T16:28:59.988Z,4.53
2017-12-13T16:31:34.749Z,4.49
2017-12-13T16:34:09.505Z,4.53
2017-12-13T16:36:43.822Z,4.53
2017-12-13T16:39:18.220Z,4.53
2017-12-13T16:41:53.101Z,4.53
2017-12-13T16:44:27.588Z,4.57
2017-12-13T16:47:02.545Z,4.55
2017-12-13T16:49:37.490Z,4.49
2017-12-13T16:52:11.561Z,4.54
2017-12-13T16:54:46.521Z,4.54
2017-12-13T16:57:21.477Z,4.53
2017-12-13T16:59:56.155Z,4.53
2017-12-13T17:02:30.945Z,4.59
2017-12-13T17:05:05.723Z,4.62
2017-12-13T17:07:40.583Z,4.62
2017-12-13T17:10:15.072Z,4.60
2017-12-13T17:12:49.678Z,4.55
2017-12-13T17:15:24.565Z,4.50
2017-12-13T17:17:59.400Z,4.53
2017-12-13T17:20:34.134Z,4.54
2017-12-13T17:23:09.068Z,4.57
2017-12-13T17:25:43.728Z,4.58
2017-12-13T17:28:18.828Z,4.56
2017-12-13T17:30:52.868Z,4.55
2017-12-13T17:33:27.889Z,4.55
2017-12-13T17:36:02.888Z,4.61
2017-12-13T17:38:38.101Z,4.59
2017-12-13T17:41:12.696Z,4.59
2017-12-13T17:43:47.505Z,4.67
2017-12-13T17:46:21.774Z,4.72
2017-12-13T17:48:56.616Z,4.72
2017-12-13T17:51:31.083Z,4.78
2017-12-13T17:54:06.108Z,4.79
2017-12-13T17:56:40.861Z,4.78
2017-12-13T17:59:15.285Z,4.82
2017-12-13T18:01:50.980Z,4.81
2017-12-13T18:04:26.081Z,4.84
2017-12-13T18:07:00.659Z,4.85
2017-12-13T18:09:35.716Z,4.84
2017-12-13T18:12:10.540Z,4.89
2017-12-13T18:14:45.164Z,4.93
2017-12-13T18:17:19.931Z,4.95
2017-12-13T18:19:54.715Z,4.98
2017-12-13T18:22:29.494Z,5.01
2017-12-13T18:25:03.976Z,5.01
2017-12-13T18:27:39.002Z,5.04
2017-12-13T18:30:13.829Z,5.05
2017-12-13T18:32:48.759Z,5.05
2017-12-13T18:35:23.509Z,4.99
2017-12-13T18:37:58.356Z,5.01
2017-12-13T18:40:33.168Z,5.05
2017-12-13T18:43:07.996Z,5.12
2017-12-13T18:45:42.412Z,5.09
2017-12-13T18:48:17.565Z,5.09
2017-12-13T18:50:52.376Z,5.05
2017-12-13T18:53:26.825Z,5.05
2017-12-13T18:56:01.680Z,5.03
2017-12-13T18:58:36.246Z,5.10
2017-12-13T19:01:10.957Z,5.09
2017-12-13T19:03:45.512Z,5.09
2017-12-13T19:06:20.701Z,5.05
2017-12-13T19:08:55.045Z,5.04
2017-12-13T19:11:29.906Z,5.00
2017-12-13T19:14:04.830Z,4.95
2017-12-13T19:16:39.152Z,4.95
2017-12-13T19:19:14.145Z,4.98
2017-12-13T19:21:48.624Z,4.91
2017-12-13T19:24:23.620Z,4.92
2017-12-13T19:26:58.485Z,4.91
2017-12-13T19:29:33.189Z,4.91
2017-12-13T19:32:07.908Z,4.89
2017-12-13T19:34:42.659Z,4.88
2017-12-13T19:37:17.417Z,4.94
2017-12-13T19:39:51.844Z,4.89
2017-12-13T19:42:26.896Z,4.86
2017-12-13T19:45:01.596Z,4.89
2017-12-13T19:47:36.372Z,4.87
2017-12-13T19:50:11.148Z,4.96
2017-12-13T19:52:45.960Z,4.98
2017-12-13T19:55:20.742Z,4.92
2017-12-13T19:57:55.836Z,4.91
2017-12-13T20:00:30.493Z,4.88
2017-12-13T20:03:05.205Z,4.95
2017-12-13T20:05:40.040Z,4.90
2017-12-13T20:08:14.666Z,4.91
2017-12-13T20:10:49.476Z,4.91
2017-12-13T20:13:24.216Z,4.84
2017-12-13T20:15:59.029Z,4.88
2017-12-13T20:18:33.741Z,4.90
2017-12-13T20:21:08.526Z,4.91
2017-12-13T20:23:43.218Z,4.85
2017-12-13T20:26:18.005Z,4.89
2017-12-13T20:28:53.101Z,4.76
2017-12-13T20:31:27.637Z,4.77
2017-12-13T20:34:02.438Z,4.79
2017-12-13T20:36:37.140Z,4.73
2017-12-13T20:39:12.013Z,4.78
2017-12-13T20:41:46.729Z,4.80
2017-12-13T20:44:21.473Z,4.77
2017-12-13T20:46:56.169Z,4.77
2017-12-13T20:49:30.988Z,4.81
2017-12-13T20:52:05.720Z,4.80
2017-12-13T20:54:40.492Z,4.89
2017-12-13T20:57:15.436Z,4.88
2017-12-13T20:59:50.360Z,4.91
2017-12-13T21:02:25.173Z,4.92
2017-12-13T21:05:00.026Z,4.97
2017-12-13T21:07:34.747Z,4.93
2017-12-13T21:10:09.173Z,4.93
2017-12-13T21:12:43.985Z,4.91
2017-12-13T21:15:18.919Z,4.99
2017-12-13T21:17:53.747Z,5.02
2017-12-13T21:20:28.289Z,4.98
2017-12-13T21:23:02.937Z,4.93
2017-12-13T21:25:37.542Z,4.95
2017-12-13T21:28:12.267Z,4.96
2017-12-13T21:30:46.941Z,4.93
2017-12-13T21:33:22.042Z,4.94
2017-12-13T21:35:56.832Z,4.90
2017-12-13T21:38:31.684Z,4.95
2017-12-13T21:41:06.383Z,4.93
2017-12-13T21:43:41.201Z,4.95
2017-12-13T21:46:16.129Z,4.88
2017-12-13T21:48:50.636Z,4.92
2017-12-13T21:51:25.378Z,4.99
2017-12-13T21:54:00.152Z,4.93
2017-12-13T21:56:34.793Z,4.96
2017-12-13T21:59:09.513Z,4.87
2017-12-13T22:01:44.264Z,4.81
2017-12-13T22:04:19.036Z,4.78
2017-12-13T22:06:53.922Z,4.76
2017-12-13T22:09:28.869Z,4.70
2017-12-13T22:12:03.728Z,4.67
2017-12-13T22:14:38.524Z,4.68
2017-12-13T22:17:13.467Z,4.61
2017-12-13T22:19:48.409Z,4.54
2017-12-13T22:22:23.117Z,4.57
2017-12-13T22:24:57.924Z,4.54
2017-12-13T22:27:32.753Z,4.49
2017-12-13T22:30:07.676Z,4.53
2017-12-13T22:32:42.747Z,4.54
2017-12-13T22:35:17.361Z,4.64
2017-12-13T22:37:52.120Z,4.76
2017-12-13T22:40:26.513Z,4.77
2017-12-13T22:43:01.108Z,4.87
2017-12-13T22:45:35.969Z,4.95
2017-12-13T22:48:10.768Z,5.03
2017-12-13T22:50:45.517Z,5.03
2017-12-13T22:53:20.224Z,5.14
2017-12-13T22:55:55.028Z,5.18
2017-12-13T22:58:29.980Z,5.18
2017-12-13T23:01:04.711Z,5.20
2017-12-13T23:03:39.523Z,5.23
2017-12-13T23:06:14.188Z,5.20
2017-12-13T23:08:48.924Z,5.26
2017-12-13T23:11:23.421Z,5.30
2017-12-13T23:13:58.329Z,5.26
2017-12-13T23:16:33.235Z,5.29
2017-12-13T23:19:07.956Z,5.35
2017-12-13T23:21:42.960Z,5.35
2017-12-13T23:24:18.069Z,5.36
2017-12-13T23:26:52.684Z,5.38
2017-12-13T23:29:27.104Z,5.39
2017-12-13T23:32:02.117Z,5.42
2017-12-13T23:34:36.926Z,5.47
2017-12-13T23:37:11.768Z,5.52
2017-12-13T23:39:46.221Z,5.53
2017-12-13T23:42:21.409Z,5.56
2017-12-13T23:44:55.996Z,5.61
2017-12-13T23:47:30.728Z,5.66
2017-12-13T23:50:05.365Z,5.70
2017-12-13T23:52:40.161Z,5.76
2017-12-13T23:55:14.865Z,5.80
2017-12-13T23:57:49.608Z,5.79
